createdAt,value
2019-01-16T00:00:03.057Z,35.3
2019-01-16T00:00:52.754Z,37.1
2019-01-16T00:01:42.587Z,37.9
2019-01-16T00:02:33.155Z,37.1
2019-01-16T00:03:23.593Z,36.5
2019-01-16T00:04:12.747Z,36.1
2019-01-16T00:05:03.047Z,35.7
2019-01-16T00:05:52.829Z,35.1
2019-01-16T00:06:44.098Z,33.8
2019-01-16T00:07:33.783Z,32.1
2019-01-16T00:08:23.547Z,30.7
2019-01-16T00:09:13.330Z,29.6
2019-01-16T00:10:03.491Z,28.7
2019-01-16T00:10:53.165Z,28
2019-01-16T00:11:43.487Z,30.3
2019-01-16T00:12:33.591Z,34.3
2019-01-16T00:13:23.593Z,36.3
2019-01-16T00:14:12.821Z,37.2
2019-01-16T00:15:03.511Z,36.6
2019-01-16T00:15:53.570Z,36.1
2019-01-16T00:16:43.360Z,35.7
2019-01-16T00:17:33.453Z,35.5
2019-01-16T00:18:24.723Z,34.8
2019-01-16T00:19:14.567Z,33.3
2019-01-16T00:20:04.426Z,31.8
2019-01-16T00:20:54.691Z,30.4
2019-01-16T00:21:44.427Z,29.3
2019-01-16T00:22:34.505Z,29.9
2019-01-16T00:23:24.328Z,34
2019-01-16T00:24:14.895Z,36.3
2019-01-16T00:25:03.835Z,37.7
2019-01-16T00:25:55.020Z,37.2
2019-01-16T00:26:44.512Z,36.6
2019-01-16T00:27:34.845Z,36.2
2019-01-16T00:28:24.345Z,35.9
2019-01-16T00:29:15.214Z,35.5
2019-01-16T00:30:05.112Z,34.4
2019-01-16T00:30:55.060Z,32.8
2019-01-16T00:31:45.413Z,31.3
2019-01-16T00:32:34.895Z,30.1
2019-01-16T00:33:25.599Z,29.1
2019-01-16T00:34:15.352Z,33.1
2019-01-16T00:35:05.176Z,35.8
2019-01-16T00:35:54.079Z,37.4
2019-01-16T00:36:44.957Z,37.2
2019-01-16T00:37:35.054Z,36.6
2019-01-16T00:38:25.086Z,36.2
2019-01-16T00:39:15.152Z,35.8
2019-01-16T00:40:05.201Z,35.4
2019-01-16T00:40:55.764Z,34.3
2019-01-16T00:41:45.254Z,32.6
2019-01-16T00:42:35.829Z,31.1
2019-01-16T00:43:25.121Z,29.9
2019-01-16T00:44:15.689Z,29
2019-01-16T00:45:05.198Z,30.3
2019-01-16T00:45:55.501Z,34.3
2019-01-16T00:46:46.128Z,36.4
2019-01-16T00:47:35.696Z,37.4
2019-01-16T00:48:31.391Z,36.7
2019-01-16T00:49:16.391Z,36.2
2019-01-16T00:50:05.610Z,35.9
2019-01-16T00:50:56.476Z,35.6
2019-01-16T00:51:47.028Z,34.8
2019-01-16T00:52:35.975Z,33.3
2019-01-16T00:53:26.118Z,31.8
2019-01-16T00:54:16.675Z,30.4
2019-01-16T00:55:07.035Z,29.4
2019-01-16T00:55:57.028Z,31
2019-01-16T00:56:45.965Z,34.7
2019-01-16T00:57:37.433Z,36.6
2019-01-16T00:58:26.160Z,37.8
2019-01-16T00:59:18.032Z,37
2019-01-16T01:00:06.553Z,36.5
2019-01-16T01:00:56.840Z,36
2019-01-16T01:01:46.625Z,35.8
2019-01-16T01:02:36.918Z,35.3
2019-01-16T01:03:27.307Z,34
2019-01-16T01:04:16.755Z,32.4
2019-01-16T01:05:06.570Z,31
2019-01-16T01:05:56.612Z,29.9
2019-01-16T01:06:47.499Z,31.1
2019-01-16T01:07:37.253Z,34.8
2019-01-16T01:08:27.352Z,36.8
2019-01-16T01:09:17.732Z,37.9
2019-01-16T01:10:08.392Z,37.1
2019-01-16T01:10:57.764Z,36.6
2019-01-16T01:11:47.336Z,36.1
2019-01-16T01:12:37.319Z,35.9
2019-01-16T01:13:27.667Z,35.3
2019-01-16T01:14:18.569Z,33.9
2019-01-16T01:15:08.412Z,32.3
2019-01-16T01:15:58.365Z,30.9
2019-01-16T01:16:48.182Z,29.8
2019-01-16T01:17:38.219Z,28.9
2019-01-16T01:18:43.374Z,30.4
2019-01-16T01:19:18.331Z,35
2019-01-16T01:20:07.854Z,36.4
2019-01-16T01:20:58.441Z,37.6
2019-01-16T01:21:48.292Z,36.9
2019-01-16T01:22:38.631Z,36.4
2019-01-16T01:23:27.780Z,36
2019-01-16T01:24:18.701Z,35.8
2019-01-16T01:25:08.739Z,35.2
2019-01-16T01:25:58.874Z,33.9
2019-01-16T01:26:49.111Z,32.3
2019-01-16T01:27:38.920Z,30.9
2019-01-16T01:28:28.691Z,29.8
2019-01-16T01:29:19.550Z,28.9
2019-01-16T01:30:09.111Z,31.4
2019-01-16T01:30:58.978Z,34.9
2019-01-16T01:31:48.924Z,36.8
2019-01-16T01:32:39.226Z,37.5
2019-01-16T01:33:29.315Z,36.8
2019-01-16T01:34:21.483Z,36.3
2019-01-16T01:35:09.423Z,35.9
2019-01-16T01:35:59.745Z,35.6
2019-01-16T01:36:49.231Z,34.8
2019-01-16T01:37:39.860Z,33.4
2019-01-16T01:38:30.195Z,31.8
2019-01-16T01:39:19.389Z,30.4
2019-01-16T01:40:10.018Z,29.4
2019-01-16T01:40:58.965Z,29.4
2019-01-16T01:41:49.318Z,33.6
2019-01-16T01:42:39.642Z,36
2019-01-16T01:43:29.435Z,37.5
2019-01-16T01:44:19.822Z,36.9
2019-01-16T01:45:09.812Z,36.4
2019-01-16T01:46:00.440Z,36.1
2019-01-16T01:46:49.921Z,35.8
2019-01-16T01:47:39.497Z,35.3
2019-01-16T01:48:30.029Z,34
2019-01-16T01:49:20.725Z,32.2
2019-01-16T01:50:10.224Z,30.9
2019-01-16T01:50:59.692Z,29.9
2019-01-16T01:51:50.315Z,29
2019-01-16T01:52:40.315Z,28.3
2019-01-16T01:53:30.927Z,30.3
2019-01-16T01:54:21.260Z,34.2
2019-01-16T01:55:10.772Z,36.3
2019-01-16T01:56:01.095Z,37.6
2019-01-16T01:56:50.617Z,36.9
2019-01-16T01:57:40.112Z,36.4
2019-01-16T01:58:30.196Z,36
2019-01-16T01:59:20.492Z,35.7
2019-01-16T02:00:12.897Z,35.4
2019-01-16T02:01:01.179Z,34.3
2019-01-16T02:01:50.934Z,32.8
2019-01-16T02:02:41.321Z,31.3
2019-01-16T02:03:31.341Z,30.1
2019-01-16T02:04:20.554Z,30.6
2019-01-16T02:05:10.359Z,34.5
2019-01-16T02:06:00.939Z,36.6
2019-01-16T02:06:51.991Z,37.9
2019-01-16T02:07:41.654Z,37.1
2019-01-16T02:08:31.649Z,36.6
2019-01-16T02:09:21.708Z,36.1
2019-01-16T02:10:11.481Z,35.8
2019-01-16T02:11:01.338Z,35.4
2019-01-16T02:11:50.771Z,34.3
2019-01-16T02:12:42.002Z,32.7
2019-01-16T02:13:32.038Z,31.2
2019-01-16T02:14:21.566Z,30.1
2019-01-16T02:15:11.280Z,29.1
2019-01-16T02:16:02.173Z,28.9
2019-01-16T02:16:51.393Z,33.3
2019-01-16T02:17:41.513Z,35.9
2019-01-16T02:18:31.300Z,37.4
2019-01-16T02:19:22.503Z,37
2019-01-16T02:20:12.533Z,36.5
2019-01-16T02:21:02.303Z,36.1
2019-01-16T02:21:51.533Z,35.8
2019-01-16T02:22:42.137Z,35.4
2019-01-16T02:23:31.938Z,34.4
2019-01-16T02:24:21.985Z,32.9
2019-01-16T02:25:12.113Z,31.4
2019-01-16T02:26:01.895Z,30.2
2019-01-16T02:26:52.213Z,29.2
2019-01-16T02:27:43.542Z,31.4
2019-01-16T02:28:32.210Z,35
2019-01-16T02:29:23.375Z,36.9
2019-01-16T02:30:12.446Z,37.3
2019-01-16T02:31:03.245Z,36.8
2019-01-16T02:31:53.274Z,36.2
2019-01-16T02:32:43.644Z,35.9
2019-01-16T02:33:32.612Z,35.6
2019-01-16T02:34:23.727Z,34.9
2019-01-16T02:35:13.225Z,33.4
2019-01-16T02:36:03.537Z,31.8
2019-01-16T02:36:53.952Z,30.6
2019-01-16T02:37:43.788Z,31.7
2019-01-16T02:38:33.481Z,35.1
2019-01-16T02:39:24.107Z,37.1
2019-01-16T02:40:13.077Z,38.1
2019-01-16T02:41:02.852Z,37.4
2019-01-16T02:41:52.966Z,36.8
2019-01-16T02:42:43.252Z,36.3
2019-01-16T02:43:34.054Z,36
2019-01-16T02:44:23.895Z,35.6
2019-01-16T02:45:13.895Z,34.4
2019-01-16T02:46:03.792Z,32.9
2019-01-16T02:46:53.316Z,31.4
2019-01-16T02:47:43.801Z,30.3
2019-01-16T02:48:33.205Z,29.6
2019-01-16T02:49:23.499Z,33.7
2019-01-16T02:50:14.542Z,36.2
2019-01-16T02:51:04.338Z,37.7
2019-01-16T02:51:54.411Z,37.3
2019-01-16T02:52:44.876Z,36.8
2019-01-16T02:53:33.418Z,36.3
2019-01-16T02:54:24.886Z,35.9
2019-01-16T02:55:14.366Z,35.6
2019-01-16T02:56:04.158Z,34.7
2019-01-16T02:56:54.253Z,33.2
2019-01-16T02:57:44.536Z,31.7
2019-01-16T02:58:35.154Z,30.4
2019-01-16T02:59:24.875Z,29.4
2019-01-16T03:00:14.663Z,32.7
2019-01-16T03:01:05.506Z,35.6
2019-01-16T03:01:55.396Z,37.4
2019-01-16T03:02:45.385Z,37.8
2019-01-16T03:03:34.856Z,37
2019-01-16T03:04:25.490Z,36.6
2019-01-16T03:05:15.131Z,36.2
2019-01-16T03:08:48.830Z,32.3
2019-01-16T03:09:38.818Z,30.7
2019-01-16T03:10:29.145Z,30
2019-01-16T03:11:19.417Z,34
2019-01-16T03:12:09.865Z,36.4
2019-01-16T03:12:59.267Z,37.8
2019-01-16T03:13:48.794Z,37.3
2019-01-16T03:14:39.688Z,36.8
2019-01-16T03:15:29.712Z,36.3
2019-01-16T03:16:19.217Z,36
2019-01-16T03:17:09.857Z,35.6
2019-01-16T03:17:59.330Z,34.5
2019-01-16T03:18:49.921Z,33
2019-01-16T03:19:39.836Z,31.5
2019-01-16T03:20:29.861Z,30.3
2019-01-16T03:21:20.401Z,29.4
2019-01-16T03:22:09.957Z,30.2
2019-01-16T03:23:00.499Z,34.2
2019-01-16T03:23:49.749Z,36.4
2019-01-16T03:24:39.864Z,37.8
2019-01-16T03:25:30.124Z,37.4
2019-01-16T03:26:20.257Z,36.9
2019-01-16T03:27:10.504Z,36.4
2019-01-16T03:28:00.846Z,36
2019-01-16T03:28:50.881Z,35.8
2019-01-16T03:29:40.107Z,34.9
2019-01-16T03:30:31.022Z,33.6
2019-01-16T03:31:20.872Z,32.1
2019-01-16T03:32:11.453Z,30.8
2019-01-16T03:33:00.934Z,31.8
2019-01-16T03:33:50.089Z,35.2
2019-01-16T03:34:40.578Z,37.1
2019-01-16T03:35:31.056Z,37.9
2019-01-16T03:36:20.460Z,37.2
2019-01-16T03:37:10.618Z,36.8
2019-01-16T03:38:01.505Z,36.3
2019-01-16T03:38:51.657Z,35.9
2019-01-16T03:39:40.428Z,35.3
2019-01-16T03:40:31.376Z,33.9
2019-01-16T03:41:21.197Z,32.3
2019-01-16T03:42:11.020Z,30.9
2019-01-16T03:43:01.297Z,29.9
2019-01-16T03:43:51.339Z,29.1
2019-01-16T03:44:41.190Z,29.5
2019-01-16T03:45:32.104Z,33.7
2019-01-16T03:46:21.792Z,36.1
2019-01-16T03:47:11.627Z,37.5
2019-01-16T03:48:01.949Z,36.9
2019-01-16T03:48:51.917Z,36.6
2019-01-16T03:49:42.066Z,36.1
2019-01-16T03:50:31.815Z,35.8
2019-01-16T03:51:21.870Z,35.4
2019-01-16T03:52:12.529Z,34.3
2019-01-16T03:53:01.987Z,32.6
2019-01-16T03:53:51.698Z,31.3
2019-01-16T03:54:42.370Z,30.1
2019-01-16T03:55:31.989Z,29.3
2019-01-16T03:56:21.633Z,32.9
2019-01-16T03:57:11.978Z,35.7
2019-01-16T03:58:02.860Z,37.3
2019-01-16T03:58:52.334Z,37.5
2019-01-16T03:59:42.490Z,36.9
2019-01-16T04:00:32.999Z,36.5
2019-01-16T04:01:22.850Z,36.1
2019-01-16T04:02:13.133Z,35.8
2019-01-16T04:03:02.916Z,35
2019-01-16T04:03:52.392Z,33.6
2019-01-16T04:04:42.729Z,32.1
2019-01-16T04:05:33.376Z,30.9
2019-01-16T04:06:23.421Z,34.6
2019-01-16T04:07:12.894Z,36.8
2019-01-16T04:08:02.678Z,38.1
2019-01-16T04:08:52.781Z,37.7
2019-01-16T04:09:43.383Z,37
2019-01-16T04:10:33.104Z,36.5
2019-01-16T04:11:23.481Z,36.1
2019-01-16T04:12:13.123Z,35.8
2019-01-16T04:13:03.572Z,34.8
2019-01-16T04:13:53.079Z,33.3
2019-01-16T04:14:43.696Z,31.8
2019-01-16T04:15:34.024Z,30.6
2019-01-16T04:16:24.223Z,29.6
2019-01-16T04:17:13.156Z,28.9
2019-01-16T04:18:03.691Z,28.3
2019-01-16T04:18:53.509Z,28.6
2019-01-16T04:19:44.321Z,33
2019-01-16T04:20:34.163Z,35.6
2019-01-16T04:21:23.991Z,37.2
2019-01-16T04:22:13.788Z,37.3
2019-01-16T04:23:03.875Z,36.8
2019-01-16T04:23:54.158Z,36.3
2019-01-16T04:24:43.910Z,35.9
2019-01-16T04:25:34.116Z,35.8
2019-01-16T04:26:24.581Z,35.1
2019-01-16T04:27:14.178Z,33.8
2019-01-16T04:28:04.320Z,32.3
2019-01-16T04:28:53.890Z,30.9
2019-01-16T04:29:44.465Z,33.2
2019-01-16T04:30:34.031Z,36.2
2019-01-16T04:31:24.593Z,37.7
2019-01-16T04:32:14.385Z,38.1
2019-01-16T04:33:04.769Z,37.3
2019-01-16T04:33:54.296Z,36.8
2019-01-16T04:34:44.594Z,36.4
2019-01-16T04:35:34.424Z,35.9
2019-01-16T04:36:24.962Z,35.3
2019-01-16T04:37:14.972Z,33.9
2019-01-16T04:38:04.600Z,32.3
2019-01-16T04:38:55.122Z,31
2019-01-16T04:39:45.144Z,29.9
2019-01-16T04:40:34.414Z,29.1
2019-01-16T04:41:25.064Z,29.1
2019-01-16T04:42:15.447Z,33.5
2019-01-16T04:43:05.165Z,36.1
2019-01-16T04:43:54.605Z,37.6
2019-01-16T04:44:45.309Z,37.6
2019-01-16T04:45:35.001Z,36.9
2019-01-16T04:46:25.620Z,36.5
2019-01-16T04:47:15.662Z,36.2
2019-01-16T04:48:05.239Z,35.9
2019-01-16T04:48:55.571Z,35.3
2019-01-16T04:49:45.339Z,34.1
2019-01-16T04:50:35.629Z,32.6
2019-01-16T04:51:25.722Z,31.2
2019-01-16T04:52:15.732Z,30.3
2019-01-16T04:53:06.064Z,34.2
2019-01-16T04:53:55.867Z,36.5
2019-01-16T04:54:45.656Z,38
2019-01-16T04:55:35.933Z,37.6
2019-01-16T04:56:25.789Z,37
2019-01-16T04:57:15.794Z,36.5
2019-01-16T04:58:06.113Z,36.1
2019-01-16T04:58:56.505Z,35.8
2019-01-16T04:59:45.682Z,34.8
2019-01-16T05:00:36.373Z,33.4
2019-01-16T05:01:26.356Z,31.9
2019-01-16T05:02:16.720Z,30.6
2019-01-16T05:03:06.471Z,29.7
2019-01-16T05:03:56.513Z,29.1
2019-01-16T05:04:46.850Z,33.4
2019-01-16T05:05:35.777Z,36.1
2019-01-16T05:06:26.700Z,37.6
2019-01-16T05:07:16.772Z,37.5
2019-01-16T05:08:06.266Z,36.9
2019-01-16T05:08:57.650Z,36.4
2019-01-16T05:09:47.120Z,36.1
2019-01-16T05:10:36.898Z,35.7
2019-01-16T05:11:26.255Z,35
2019-01-16T05:12:17.105Z,33.6
2019-01-16T05:13:07.887Z,32.1
2019-01-16T05:13:57.938Z,30.8
2019-01-16T05:14:47.453Z,31
2019-01-16T05:15:37.787Z,34.9
2019-01-16T05:16:27.555Z,37
2019-01-16T05:17:17.617Z,38.2
2019-01-16T05:18:07.459Z,37.8
2019-01-16T05:18:58.042Z,37.1
2019-01-16T05:19:48.352Z,36.6
2019-01-16T05:20:37.362Z,36.1
2019-01-16T05:21:27.167Z,35.8
2019-01-16T05:22:17.486Z,35.1
2019-01-16T05:23:07.781Z,33.8
2019-01-16T05:23:58.146Z,32.3
2019-01-16T05:24:48.399Z,30.9
2019-01-16T05:25:38.151Z,29.9
2019-01-16T05:26:30.779Z,29.1
2019-01-16T05:27:18.368Z,28.6
2019-01-16T05:28:08.631Z,32.9
2019-01-16T05:28:57.927Z,35.8
2019-01-16T05:29:48.836Z,37.4
2019-01-16T05:30:38.489Z,37.6
2019-01-16T05:31:28.876Z,36.9
2019-01-16T05:32:19.175Z,36.5
2019-01-16T05:33:08.686Z,36.1
2019-01-16T05:33:58.736Z,35.8
2019-01-16T05:34:49.312Z,35.2
2019-01-16T05:35:39.409Z,33.8
2019-01-16T05:36:28.913Z,32.3
2019-01-16T05:37:19.245Z,31
2019-01-16T05:38:09.328Z,32.8
2019-01-16T05:38:59.351Z,35.9
2019-01-16T05:39:49.151Z,37.7
2019-01-16T05:40:39.469Z,38.6
2019-01-16T05:41:29.255Z,37.7
2019-01-16T05:42:19.829Z,37.1
2019-01-16T05:43:09.629Z,36.6
2019-01-16T05:43:59.977Z,36.2
2019-01-16T05:44:50.024Z,35.8
2019-01-16T05:45:39.491Z,34.8
2019-01-16T05:46:29.793Z,33.3
2019-01-16T05:47:19.605Z,31.8
2019-01-16T05:48:10.005Z,30.6
2019-01-16T05:48:59.482Z,29.7
2019-01-16T05:49:54.664Z,33.3
2019-01-16T05:50:39.356Z,36.4
2019-01-16T05:51:29.967Z,37.8
2019-01-16T05:52:19.935Z,37.6
2019-01-16T05:53:09.815Z,37
2019-01-16T05:54:00.126Z,36.6
2019-01-16T05:54:49.674Z,36.1
2019-01-16T05:55:39.418Z,35.8
2019-01-16T05:56:29.720Z,34.8
2019-01-16T05:57:20.339Z,33.3
2019-01-16T05:58:10.647Z,31.8
2019-01-16T05:59:00.397Z,30.5
2019-01-16T05:59:50.719Z,31.8
2019-01-16T06:00:41.145Z,35.3
2019-01-16T06:01:30.840Z,37.3
2019-01-16T06:02:21.267Z,38.4
2019-01-16T06:03:11.193Z,37.8
2019-01-16T06:04:01.267Z,37.2
2019-01-16T06:06:48.854Z,35.9
2019-01-16T06:07:38.646Z,34.7
2019-01-16T06:08:29.536Z,33.1
2019-01-16T06:09:21.059Z,31.6
2019-01-16T06:10:09.679Z,30.4
2019-01-16T06:10:59.725Z,32
2019-01-16T06:11:49.705Z,35.5
2019-01-16T06:12:39.233Z,37.4
2019-01-16T06:13:29.030Z,38.2
2019-01-16T06:14:19.932Z,37.4
2019-01-16T06:15:09.670Z,36.9
2019-01-16T06:16:00.032Z,36.5
2019-01-16T06:16:49.787Z,36.1
2019-01-16T06:17:39.530Z,35.6
2019-01-16T06:18:29.997Z,34.2
2019-01-16T06:19:19.142Z,29.6
2019-01-16T06:20:10.000Z,25.9
2019-01-16T06:21:00.055Z,23.7
2019-01-16T06:21:50.370Z,22.6
2019-01-16T06:22:40.159Z,22
2019-01-16T06:23:30.342Z,22
2019-01-16T06:24:20.304Z,22.2
2019-01-16T06:25:10.452Z,22.4
2019-01-16T06:26:00.421Z,22.5
2019-01-16T06:26:50.146Z,22.7
2019-01-16T06:27:40.841Z,23.3
2019-01-16T06:28:30.886Z,23.8
2019-01-16T06:29:20.339Z,24.3
2019-01-16T06:30:10.934Z,24.5
2019-01-16T06:31:00.207Z,24.3
2019-01-16T06:31:49.749Z,24.3
2019-01-16T06:32:40.346Z,24.4
2019-01-16T06:33:30.754Z,24.5
2019-01-16T06:34:21.067Z,24.5
2019-01-16T06:35:11.302Z,24.6
2019-01-16T06:36:01.104Z,24.6
2019-01-16T06:36:50.414Z,24.7
2019-01-16T06:37:41.423Z,24.8
2019-01-16T06:38:31.473Z,24.9
2019-01-16T06:39:21.595Z,24.9
2019-01-16T06:40:11.328Z,25
2019-01-16T06:41:01.095Z,25.1
2019-01-16T06:41:50.974Z,25.1
2019-01-16T06:42:41.505Z,25.1
2019-01-16T06:43:31.537Z,25.1
2019-01-16T06:44:21.352Z,25.1
2019-01-16T06:45:10.838Z,25.1
2019-01-16T06:46:01.412Z,25.1
2019-01-16T06:46:52.098Z,25
2019-01-16T06:47:41.530Z,25
2019-01-16T06:48:31.325Z,24.9
2019-01-16T06:49:21.705Z,24.9
2019-01-16T06:50:19.857Z,24.9
2019-01-16T06:51:02.035Z,28.6
2019-01-16T06:51:52.368Z,31.7
2019-01-16T06:52:42.202Z,34
2019-01-16T06:53:31.946Z,35.5
2019-01-16T06:54:22.563Z,36.7
2019-01-16T06:55:12.109Z,37.6
2019-01-16T06:56:02.387Z,38.6
2019-01-16T06:56:52.427Z,39.3
2019-01-16T06:57:42.277Z,38.4
2019-01-16T06:58:32.277Z,37.8
2019-01-16T06:59:21.574Z,37.3
2019-01-16T07:00:12.952Z,36.9
2019-01-16T07:01:02.497Z,36.6
2019-01-16T07:01:52.554Z,36.3
2019-01-16T07:02:43.082Z,36
2019-01-16T07:03:32.689Z,35.7
2019-01-16T07:04:22.652Z,35.1
2019-01-16T07:06:48.723Z,30.6
2019-01-16T07:07:38.819Z,30.5
2019-01-16T07:08:28.132Z,30.5
2019-01-16T07:09:19.480Z,30.5
2019-01-16T07:10:09.044Z,30.5
2019-01-16T07:10:59.386Z,30.6
2019-01-16T07:11:49.143Z,30.7
2019-01-16T07:12:38.914Z,30.8
2019-01-16T07:13:29.748Z,30.9
2019-01-16T07:14:19.854Z,31
2019-01-16T07:15:09.614Z,31.1
2019-01-16T07:15:59.641Z,31.3
2019-01-16T07:16:49.411Z,31.4
2019-01-16T07:17:40.031Z,31.4
2019-01-16T07:18:29.823Z,31.6
2019-01-16T07:19:20.153Z,31.6
2019-01-16T07:20:17.626Z,30.9
2019-01-16T07:20:59.693Z,30.5
2019-01-16T07:21:50.316Z,30.4
2019-01-16T07:22:40.093Z,30.3
2019-01-16T07:23:30.161Z,30.1
2019-01-16T07:24:19.995Z,30
2019-01-16T07:25:10.266Z,29.9
2019-01-16T07:26:00.598Z,29.8
2019-01-16T07:26:49.828Z,29.7
2019-01-16T07:27:40.737Z,29.6
2019-01-16T07:28:30.283Z,29.6
2019-01-16T07:29:20.066Z,29.4
2019-01-16T07:30:10.135Z,28.8
2019-01-16T07:31:00.165Z,28.1
2019-01-16T07:31:50.275Z,27.6
2019-01-16T07:32:40.078Z,28.1
2019-01-16T07:33:30.672Z,28.6
2019-01-16T07:34:20.400Z,29
2019-01-16T07:35:10.777Z,29.4
2019-01-16T07:36:00.522Z,29.7
2019-01-16T07:36:50.276Z,29.9
2019-01-16T07:37:40.612Z,30.1
2019-01-16T07:38:32.462Z,30.3
2019-01-16T07:39:21.495Z,30.5
2019-01-16T07:40:11.270Z,30.6
2019-01-16T07:41:01.114Z,30.8
2019-01-16T07:41:51.458Z,31
2019-01-16T07:42:49.563Z,31.1
2019-01-16T07:43:31.626Z,31.3
2019-01-16T07:44:21.319Z,31.4
2019-01-16T07:45:11.414Z,31.5
2019-01-16T07:46:01.640Z,31.6
2019-01-16T07:46:52.798Z,31.8
2019-01-16T07:47:41.779Z,31.2
2019-01-16T07:48:32.321Z,30.6
2019-01-16T07:49:22.144Z,30.4
2019-01-16T07:50:19.728Z,30.2
2019-01-16T07:51:01.999Z,30
2019-01-16T07:51:52.104Z,29.9
2019-01-16T07:52:41.148Z,29.8
2019-01-16T07:53:32.455Z,29.7
2019-01-16T07:54:21.683Z,29.6
2019-01-16T07:55:12.576Z,29.5
2019-01-16T07:56:02.074Z,29.4
2019-01-16T07:56:52.170Z,29.4
2019-01-16T07:57:42.451Z,29.1
2019-01-16T07:58:32.523Z,28.4
2019-01-16T07:59:29.413Z,27.8
2019-01-16T08:00:12.649Z,27.8
2019-01-16T08:01:02.698Z,28.3
2019-01-16T08:01:53.028Z,28.8
2019-01-16T08:02:42.831Z,29.3
2019-01-16T08:03:32.848Z,29.6
2019-01-16T08:04:22.691Z,29.9
2019-01-16T08:05:12.958Z,30.1
2019-01-16T08:06:03.420Z,30.3
2019-01-16T08:06:53.087Z,30.4
2019-01-16T08:07:43.430Z,30.6
2019-01-16T08:08:33.193Z,30.8
2019-01-16T08:09:23.319Z,30.9
2019-01-16T08:10:12.477Z,31.1
2019-01-16T08:11:02.825Z,31.3
2019-01-16T08:11:53.210Z,31.4
2019-01-16T08:12:43.773Z,31.5
2019-01-16T08:13:33.867Z,31.6
2019-01-16T08:14:23.859Z,31.8
2019-01-16T08:15:13.925Z,31.8
2019-01-16T08:16:03.420Z,30.9
2019-01-16T08:16:53.270Z,30.6
2019-01-16T08:17:44.160Z,30.3
2019-01-16T08:18:34.179Z,30.1
2019-01-16T08:19:24.277Z,30
2019-01-16T08:20:13.760Z,29.9
2019-01-16T08:21:04.066Z,29.8
2019-01-16T08:21:53.262Z,29.6
2019-01-16T08:22:44.450Z,29.6
2019-01-16T08:23:34.207Z,29.5
2019-01-16T08:24:24.552Z,29.4
2019-01-16T08:25:14.659Z,29.4
2019-01-16T08:26:04.374Z,28.8
2019-01-16T08:26:54.231Z,28.6
2019-01-16T08:27:44.491Z,29
2019-01-16T08:28:34.574Z,29.4
2019-01-16T08:29:24.329Z,29.8
2019-01-16T08:30:14.679Z,29.9
2019-01-16T08:31:04.451Z,30.2
2019-01-16T08:31:54.517Z,30.4
2019-01-16T08:32:44.624Z,30.5
2019-01-16T08:33:34.319Z,30.7
2019-01-16T08:34:24.659Z,30.8
2019-01-16T08:35:15.276Z,31
2019-01-16T08:36:04.778Z,31.2
2019-01-16T08:36:55.156Z,31.3
2019-01-16T08:37:45.165Z,31.4
2019-01-16T08:38:35.320Z,31.6
2019-01-16T08:39:25.068Z,31.7
2019-01-16T08:40:15.403Z,31.7
2019-01-16T08:41:05.110Z,30.6
2019-01-16T08:41:55.191Z,29.1
2019-01-16T08:42:45.781Z,27.6
2019-01-16T08:43:35.846Z,27.4
2019-01-16T08:44:25.930Z,27.5
2019-01-16T08:45:15.706Z,28.4
2019-01-16T08:46:05.461Z,29.1
2019-01-16T08:46:56.058Z,29.6
2019-01-16T08:47:45.633Z,30
2019-01-16T08:48:35.688Z,30.3
2019-01-16T08:49:26.018Z,30.6
2019-01-16T08:50:15.752Z,30.8
2019-01-16T08:51:06.431Z,31.1
2019-01-16T08:51:55.910Z,31.3
2019-01-16T08:52:46.445Z,31.4
2019-01-16T08:53:38.105Z,31.6
2019-01-16T08:54:26.380Z,31.8
2019-01-16T08:55:16.627Z,31.9
2019-01-16T08:56:06.690Z,31.1
2019-01-16T08:56:56.740Z,30.8
2019-01-16T08:57:46.812Z,30.6
2019-01-16T08:58:36.963Z,30.5
2019-01-16T08:59:26.662Z,30.4
2019-01-16T09:00:16.983Z,30.2
2019-01-16T09:01:05.903Z,30.1
2019-01-16T09:01:56.805Z,30
2019-01-16T09:02:46.864Z,29.9
2019-01-16T09:03:37.203Z,29.9
2019-01-16T09:04:27.257Z,29.8
2019-01-16T09:05:16.782Z,29.5
2019-01-16T09:06:06.582Z,28.8
2019-01-16T09:06:57.476Z,27.9
2019-01-16T09:07:47.466Z,28.3
2019-01-16T09:08:36.412Z,28.9
2019-01-16T09:09:26.848Z,29.4
2019-01-16T09:10:16.874Z,29.7
2019-01-16T09:11:07.424Z,30
2019-01-16T09:11:57.544Z,30.3
2019-01-16T09:12:46.507Z,30.5
2019-01-16T09:13:37.876Z,30.7
2019-01-16T09:14:27.422Z,30.9
2019-01-16T09:15:17.471Z,31.1
2019-01-16T09:16:07.224Z,31.2
2019-01-16T09:16:57.866Z,31.4
2019-01-16T09:17:49.696Z,31.5
2019-01-16T09:18:37.966Z,31.6
2019-01-16T09:19:27.791Z,31.8
2019-01-16T09:20:18.323Z,31.9
2019-01-16T09:21:08.103Z,32
2019-01-16T09:21:58.436Z,31.4
2019-01-16T09:22:50.350Z,30.8
2019-01-16T09:23:38.269Z,30.6
2019-01-16T09:24:27.503Z,30.4
2019-01-16T09:25:18.191Z,30.3
2019-01-16T09:26:08.441Z,30.2
2019-01-16T09:26:58.199Z,30.1
2019-01-16T09:27:48.531Z,29.9
2019-01-16T09:28:38.861Z,29.9
2019-01-16T09:29:28.668Z,29.8
2019-01-16T09:30:18.205Z,29.8
2019-01-16T09:31:08.513Z,29.6
2019-01-16T09:31:58.828Z,28.8
2019-01-16T09:32:48.401Z,28.1
2019-01-16T09:33:38.440Z,27.8
2019-01-16T09:34:29.313Z,28.4
2019-01-16T09:35:18.848Z,29.1
2019-01-16T09:36:09.114Z,29.5
2019-01-16T09:36:59.255Z,29.8
2019-01-16T09:37:49.235Z,30.1
2019-01-16T09:38:39.018Z,30.4
2019-01-16T09:39:29.380Z,30.6
2019-01-16T09:40:19.679Z,30.8
2019-01-16T09:41:08.747Z,31
2019-01-16T09:41:59.283Z,31.2
2019-01-16T09:42:48.862Z,31.4
2019-01-16T09:43:39.907Z,31.6
2019-01-16T09:44:28.981Z,31.8
2019-01-16T09:45:19.610Z,31.9
2019-01-16T09:46:08.816Z,32.1
2019-01-16T09:46:59.094Z,32.1
2019-01-16T09:47:49.734Z,31.1
2019-01-16T09:48:38.640Z,30.9
2019-01-16T09:49:28.983Z,30.8
2019-01-16T09:50:19.584Z,30.6
2019-01-16T09:51:09.437Z,30.5
2019-01-16T09:51:59.773Z,30.3
2019-01-16T09:52:49.777Z,30.3
2019-01-16T09:53:40.101Z,30.1
2019-01-16T09:54:29.664Z,30.1
2019-01-16T09:55:19.929Z,30
2019-01-16T09:56:10.313Z,29.9
2019-01-16T09:57:00.044Z,29.9
2019-01-16T09:57:50.425Z,29.8
2019-01-16T09:58:40.147Z,29.8
2019-01-16T09:59:29.952Z,29.7
2019-01-16T10:00:20.046Z,28.8
2019-01-16T10:01:10.061Z,29
2019-01-16T10:02:00.096Z,29.4
2019-01-16T10:02:50.424Z,29.8
2019-01-16T10:03:40.978Z,30.1
2019-01-16T10:04:30.813Z,30.3
2019-01-16T10:05:20.870Z,30.6
2019-01-16T10:07:47.998Z,31.1
2019-01-16T10:08:38.373Z,31.3
2019-01-16T10:09:28.365Z,31.6
2019-01-16T10:10:18.783Z,31.8
2019-01-16T10:11:08.767Z,31.9
2019-01-16T10:11:59.108Z,32.1
2019-01-16T10:12:49.168Z,32.3
2019-01-16T10:13:38.657Z,32.1
2019-01-16T10:14:29.338Z,31.2
2019-01-16T10:15:19.110Z,30.9
2019-01-16T10:16:08.844Z,30.6
2019-01-16T10:16:59.720Z,30.5
2019-01-16T10:17:48.955Z,30.3
2019-01-16T10:18:38.780Z,30.2
2019-01-16T10:19:29.652Z,30.1
2019-01-16T10:20:19.117Z,30
2019-01-16T10:21:10.010Z,29.9
2019-01-16T10:21:59.214Z,29.9
2019-01-16T10:22:49.614Z,29.8
2019-01-16T10:23:39.602Z,29.8
2019-01-16T10:24:29.480Z,29.7
2019-01-16T10:25:20.019Z,29.6
2019-01-16T10:26:10.334Z,29.3
2019-01-16T10:26:59.839Z,28.7
2019-01-16T10:27:49.684Z,29.3
2019-01-16T10:28:39.206Z,29.8
2019-01-16T10:29:29.534Z,30.3
2019-01-16T10:30:18.685Z,30.5
2019-01-16T10:31:09.544Z,30.8
2019-01-16T10:31:59.506Z,30.9
2019-01-16T10:32:49.781Z,31.2
2019-01-16T10:33:40.311Z,31.3
2019-01-16T10:34:30.626Z,31.5
2019-01-16T10:35:20.496Z,31.1
2019-01-16T10:36:10.234Z,29.9
2019-01-16T10:37:01.076Z,28.1
2019-01-16T10:37:50.586Z,27.4
2019-01-16T10:38:40.621Z,27.2
2019-01-16T10:39:31.028Z,27.9
2019-01-16T10:40:21.364Z,28.8
2019-01-16T10:41:10.521Z,29.6
2019-01-16T10:42:00.576Z,30.1
2019-01-16T10:42:50.346Z,30.6
2019-01-16T10:43:40.744Z,30.9
2019-01-16T10:44:30.525Z,31.3
2019-01-16T10:45:22.668Z,31.5
2019-01-16T10:46:10.683Z,31.8
2019-01-16T10:47:00.641Z,32
2019-01-16T10:47:51.370Z,32.2
2019-01-16T10:48:40.832Z,32.4
2019-01-16T10:49:31.633Z,31.4
2019-01-16T10:50:20.681Z,31.1
2019-01-16T10:51:11.273Z,30.8
2019-01-16T10:52:01.106Z,30.6
2019-01-16T10:52:51.927Z,30.5
2019-01-16T10:53:41.383Z,30.3
2019-01-16T10:54:31.225Z,30.2
2019-01-16T10:55:21.490Z,30.1
2019-01-16T10:56:11.282Z,30
2019-01-16T10:57:01.443Z,29.9
2019-01-16T10:57:51.653Z,29.9
2019-01-16T10:58:41.997Z,29.8
2019-01-16T10:59:32.057Z,29.8
2019-01-16T11:00:22.379Z,29.7
2019-01-16T11:01:11.437Z,29.5
2019-01-16T11:02:02.772Z,28.8
2019-01-16T11:02:51.703Z,29.2
2019-01-16T11:03:42.652Z,29.7
2019-01-16T11:04:31.560Z,30.3
2019-01-16T11:05:22.178Z,30.6
2019-01-16T11:06:11.372Z,30.8
2019-01-16T11:07:02.000Z,31.1
2019-01-16T11:07:52.617Z,31.3
2019-01-16T11:08:42.961Z,31.5
2019-01-16T11:09:32.472Z,31.7
2019-01-16T11:10:22.022Z,31.9
2019-01-16T11:11:21.702Z,32.1
2019-01-16T11:12:02.667Z,32.3
2019-01-16T11:12:53.279Z,32.4
2019-01-16T11:13:42.374Z,32.3
2019-01-16T11:14:33.331Z,31.3
2019-01-16T11:15:23.112Z,30.9
2019-01-16T11:16:13.481Z,30.7
2019-01-16T11:17:04.197Z,30.4